createdAt,value
2023-02-19T00:00:34.182Z,0.60
2023-02-19T00:05:36.936Z,0.73
2023-02-19T00:10:40.469Z,0.60
2023-02-19T00:15:42.620Z,0.82
2023-02-19T00:20:44.750Z,0.90
2023-02-19T00:25:48.271Z,0.60
2023-02-19T00:30:50.662Z,0.77
2023-02-19T00:35:52.795Z,1.00
2023-02-19T00:40:56.307Z,0.60
2023-02-19T00:46:00.866Z,0.85
2023-02-19T00:51:03.027Z,0.82
2023-02-19T00:56:07.736Z,0.80
2023-02-19T01:01:11.094Z,0.70
2023-02-19T01:06:15.817Z,0.70
2023-02-19T01:11:21.248Z,0.50
2023-02-19T01:16:24.847Z,0.80
2023-02-19T01:21:29.324Z,0.95
2023-02-19T01:26:36.695Z,0.95
2023-02-19T01:31:42.179Z,0.77
2023-02-19T01:36:44.408Z,0.80
2023-02-19T01:41:47.902Z,0.70
2023-02-19T01:46:51.717Z,0.82
2023-02-19T01:51:58.658Z,0.70
2023-02-19T01:57:06.414Z,0.75
2023-02-19T02:02:08.668Z,0.63
2023-02-19T02:07:24.862Z,0.88
2023-02-19T02:12:28.346Z,0.80
2023-02-19T02:17:36.432Z,0.60
2023-02-19T02:22:43.245Z,0.70
2023-02-19T02:28:12.499Z,0.70
2023-02-19T02:33:26.413Z,1.05
2023-02-19T02:38:33.034Z,1.10
2023-02-19T02:43:35.153Z,1.00
2023-02-19T02:48:42.754Z,1.10
2023-02-19T02:54:07.104Z,1.50
2023-02-19T02:59:12.073Z,1.50
2023-02-19T03:04:22.686Z,1.70
2023-02-19T03:09:30.445Z,2.20
2023-02-19T03:14:54.742Z,2.35
2023-02-19T03:19:59.813Z,2.58
2023-02-19T03:25:23.901Z,2.38
2023-02-19T03:30:31.478Z,2.70
2023-02-19T03:35:41.222Z,2.38
2023-02-19T03:40:52.393Z,2.60
2023-02-19T03:46:02.659Z,2.80
2023-02-19T03:51:26.907Z,2.75
2023-02-19T03:56:33.337Z,2.90
2023-02-19T04:01:40.718Z,3.33
2023-02-19T04:06:52.643Z,3.72
2023-02-19T04:11:56.160Z,3.28
2023-02-19T04:17:03.048Z,3.45
2023-02-19T04:22:09.752Z,3.30
2023-02-19T04:27:12.109Z,3.45
2023-02-19T04:32:15.384Z,3.30
2023-02-19T04:37:19.084Z,2.88
2023-02-19T04:42:21.214Z,3.17
2023-02-19T04:47:23.347Z,3.50
2023-02-19T04:52:26.931Z,3.47
2023-02-19T04:57:29.082Z,3.50
2023-02-19T05:02:33.770Z,3.80
2023-02-19T05:07:37.323Z,3.92
2023-02-19T05:12:39.529Z,4.47
2023-02-19T05:17:41.680Z,3.70
2023-02-19T05:22:45.155Z,4.20
2023-02-19T05:27:48.268Z,5.05
2023-02-19T05:32:50.384Z,4.10
2023-02-19T05:37:54.060Z,3.63
2023-02-19T05:42:56.408Z,3.90
2023-02-19T05:47:58.836Z,4.00
2023-02-19T05:53:05.555Z,3.42
2023-02-19T05:58:10.735Z,3.55
2023-02-19T06:03:13.316Z,3.40
2023-02-19T06:08:18.866Z,3.22
2023-02-19T06:13:21.092Z,3.20
2023-02-19T06:18:23.783Z,3.05
2023-02-19T06:23:38.432Z,2.85
2023-02-19T06:28:41.796Z,2.60
2023-02-19T06:33:44.408Z,2.40
2023-02-19T06:38:48.301Z,2.40
2023-02-19T06:43:50.424Z,2.40
2023-02-19T06:48:53.234Z,2.15
2023-02-19T06:53:57.410Z,2.13
2023-02-19T06:59:02.318Z,2.15
2023-02-19T07:04:05.758Z,2.22
2023-02-19T07:09:10.593Z,2.10
2023-02-19T07:14:16.873Z,2.35
2023-02-19T07:19:19.016Z,2.03
2023-02-19T07:24:22.848Z,1.80
2023-02-19T07:29:24.996Z,1.90
2023-02-19T07:34:27.869Z,1.77
2023-02-19T07:39:31.588Z,1.42
2023-02-19T07:44:33.795Z,1.20
2023-02-19T07:49:36.001Z,1.40
2023-02-19T07:54:39.935Z,1.10
2023-02-19T07:59:42.097Z,1.30
2023-02-19T08:04:45.804Z,1.02
2023-02-19T08:10:09.821Z,0.90
2023-02-19T08:15:12.288Z,0.90
2023-02-19T08:20:14.478Z,0.90
2023-02-19T08:25:18.228Z,1.00
2023-02-19T08:30:23.350Z,2.42
2023-02-19T08:35:25.922Z,0.80
2023-02-19T08:40:29.508Z,0.90
2023-02-19T08:45:34.734Z,0.85
2023-02-19T08:50:37.578Z,1.10
2023-02-19T08:55:41.162Z,1.08
2023-02-19T09:00:43.336Z,1.27
2023-02-19T09:05:46.932Z,1.65
2023-02-19T09:11:00.435Z,1.10
2023-02-19T09:16:04.356Z,1.10
2023-02-19T09:21:07.702Z,1.10
2023-02-19T09:26:11.640Z,1.83
2023-02-19T09:31:18.320Z,2.13
2023-02-19T09:36:20.769Z,0.90
2023-02-19T09:41:31.771Z,0.90
2023-02-19T09:46:37.319Z,0.70
2023-02-19T09:51:42.637Z,0.65
2023-02-19T09:56:46.137Z,0.63
2023-02-19T10:01:51.197Z,0.47
2023-02-19T10:06:53.908Z,0.57
2023-02-19T10:12:00.032Z,0.63
2023-02-19T10:17:05.679Z,0.40
2023-02-19T10:22:11.733Z,0.30
2023-02-19T10:27:17.208Z,0.50
2023-02-19T10:32:24.426Z,0.30
2023-02-19T10:37:26.878Z,0.40
2023-02-19T10:42:30.417Z,0.35
2023-02-19T10:47:34.879Z,0.40
2023-02-19T10:52:38.033Z,0.50
2023-02-19T10:57:42.310Z,0.50
2023-02-19T11:02:46.369Z,0.40
2023-02-19T11:07:51.090Z,0.30
2023-02-19T11:12:58.049Z,0.40
2023-02-19T11:18:04.971Z,0.60
2023-02-19T11:23:16.516Z,0.60
2023-02-19T11:28:29.595Z,0.50
2023-02-19T11:33:33.116Z,0.38
2023-02-19T11:38:39.386Z,0.60
2023-02-19T11:43:59.120Z,0.60
2023-02-19T11:49:18.074Z,0.80
2023-02-19T11:54:32.641Z,0.80
2023-02-19T11:59:45.504Z,0.80
2023-02-19T12:05:23.904Z,0.98
2023-02-19T12:10:35.651Z,0.93
2023-02-19T12:21:16.024Z,1.00
2023-02-19T12:26:24.887Z,1.30
2023-02-19T12:32:00.988Z,0.73
2023-02-19T12:37:17.381Z,0.68
2023-02-19T12:42:35.232Z,0.85
2023-02-19T12:47:43.873Z,0.60
2023-02-19T12:52:52.153Z,0.63
2023-02-19T12:57:55.902Z,0.40
2023-02-19T13:03:04.290Z,0.60
2023-02-19T13:08:12.801Z,0.52
2023-02-19T13:13:23.245Z,0.38
2023-02-19T13:18:31.705Z,0.52
2023-02-19T13:23:55.063Z,0.45
2023-02-19T13:29:21.612Z,0.20
2023-02-19T13:34:42.449Z,0.45
2023-02-19T13:39:50.298Z,0.30
2023-02-19T13:44:57.799Z,0.30
2023-02-19T13:50:12.542Z,0.40
2023-02-19T13:55:52.700Z,0.63
2023-02-19T14:01:01.756Z,0.50
2023-02-19T14:06:07.556Z,0.60
2023-02-19T14:11:14.640Z,0.50
2023-02-19T14:16:33.907Z,0.60
2023-02-19T14:21:41.260Z,0.73
2023-02-19T14:26:45.201Z,0.70
2023-02-19T14:31:49.433Z,0.60
2023-02-19T14:36:58.598Z,0.60
2023-02-19T14:42:07.211Z,0.65
2023-02-19T14:47:15.648Z,0.80
2023-02-19T14:52:26.867Z,0.68
2023-02-19T14:57:34.291Z,0.73
2023-02-19T15:02:45.378Z,0.60
2023-02-19T15:07:51.100Z,0.60
2023-02-19T15:12:56.202Z,0.85
2023-02-19T15:18:01.617Z,0.95
2023-02-19T15:23:09.081Z,0.93
2023-02-19T15:28:22.464Z,0.88
2023-02-19T15:33:28.497Z,0.63
2023-02-19T15:38:37.074Z,0.52
2023-02-19T15:43:46.237Z,0.80
2023-02-19T15:48:57.257Z,0.80
2023-02-19T15:54:08.318Z,0.70
2023-02-19T15:59:24.275Z,0.73
2023-02-19T16:04:28.296Z,0.95
2023-02-19T16:09:35.924Z,0.52
2023-02-19T16:14:40.812Z,0.80
2023-02-19T16:19:48.889Z,0.88
2023-02-19T16:24:56.554Z,1.02
2023-02-19T16:30:00.798Z,0.60
2023-02-19T16:35:04.985Z,0.70
2023-02-19T16:40:46.218Z,0.50
2023-02-19T16:45:51.337Z,0.80
2023-02-19T16:50:55.223Z,0.40
2023-02-19T16:56:00.371Z,0.90
2023-02-19T17:01:05.873Z,0.60
2023-02-19T17:06:09.757Z,0.70
2023-02-19T17:11:18.211Z,0.60
2023-02-19T17:16:25.939Z,0.70
2023-02-19T17:21:32.690Z,0.60
2023-02-19T17:26:37.080Z,0.52
2023-02-19T17:31:42.485Z,0.50
2023-02-19T17:36:46.512Z,0.73
2023-02-19T17:41:52.832Z,0.70
2023-02-19T17:46:57.864Z,0.70
2023-02-19T17:52:06.569Z,0.88
2023-02-19T17:57:10.170Z,1.00
2023-02-19T18:02:18.847Z,1.10
2023-02-19T18:07:22.996Z,0.90
2023-02-19T18:12:31.665Z,0.80
2023-02-19T18:17:37.686Z,0.88
2023-02-19T18:22:48.446Z,0.70
2023-02-19T18:27:52.500Z,1.30
2023-02-19T18:32:58.016Z,1.08
2023-02-19T18:38:01.527Z,1.00
2023-02-19T18:43:06.773Z,1.05
2023-02-19T18:48:17.613Z,1.38
2023-02-19T18:53:21.160Z,1.00
2023-02-19T18:58:26.187Z,0.93
2023-02-19T19:03:35.763Z,1.20
2023-02-19T19:08:39.519Z,1.33
2023-02-19T19:13:42.030Z,1.90
2023-02-19T19:18:49.528Z,0.98
2023-02-19T19:23:53.977Z,0.98
2023-02-19T19:28:59.418Z,1.40
2023-02-19T19:34:05.130Z,1.40
2023-02-19T19:39:11.184Z,1.13
2023-02-19T19:44:14.439Z,1.23
2023-02-19T19:49:25.097Z,1.38
2023-02-19T19:54:29.112Z,1.50
2023-02-19T19:59:32.509Z,1.35
2023-02-19T20:04:37.411Z,1.50
2023-02-19T20:09:42.610Z,1.50
2023-02-19T20:14:49.134Z,1.30
2023-02-19T20:19:54.886Z,2.92
2023-02-19T20:24:59.030Z,1.50
2023-02-19T20:30:05.739Z,2.20
2023-02-19T20:35:10.605Z,2.50
2023-02-19T20:40:19.060Z,2.60
2023-02-19T20:45:26.863Z,2.50
2023-02-19T20:50:35.741Z,2.30
2023-02-19T20:55:39.839Z,3.00
2023-02-19T21:00:42.836Z,4.28
2023-02-19T21:05:48.172Z,4.78
2023-02-19T21:10:54.409Z,4.82
2023-02-19T21:15:57.798Z,4.60
2023-02-19T21:21:02.952Z,4.50
2023-02-19T21:26:06.402Z,3.97
2023-02-19T21:31:09.853Z,5.20
2023-02-19T21:36:14.495Z,4.43
2023-02-19T21:41:17.503Z,4.43
2023-02-19T21:46:22.389Z,4.10
2023-02-19T21:51:31.500Z,4.63
2023-02-19T21:56:36.530Z,3.63
2023-02-19T22:01:39.820Z,4.30
2023-02-19T22:06:43.519Z,9.52
2023-02-19T22:11:45.837Z,4.30
2023-02-19T22:16:48.170Z,5.03
2023-02-19T22:21:51.705Z,4.85
2023-02-19T22:26:57.648Z,4.40
2023-02-19T22:31:59.902Z,4.65
2023-02-19T22:37:03.473Z,4.75
2023-02-19T22:42:05.923Z,3.83
2023-02-19T22:47:08.029Z,4.00
2023-02-19T22:52:11.844Z,3.88
2023-02-19T22:57:13.982Z,3.70
2023-02-19T23:02:16.131Z,3.15
2023-02-19T23:07:19.810Z,3.47
2023-02-19T23:12:21.976Z,3.55
2023-02-19T23:17:24.091Z,3.63
2023-02-19T23:22:27.694Z,3.65
2023-02-19T23:27:29.908Z,3.85
2023-02-19T23:32:32.157Z,4.50
2023-02-19T23:37:35.642Z,5.00
2023-02-19T23:42:37.796Z,5.72
2023-02-19T23:47:39.971Z,4.53
2023-02-19T23:52:43.505Z,4.22
2023-02-19T23:57:45.647Z,3.88
